sensor_id;sensor_type;location;lat;lon;timestamp;temperature;humidity
20208;DHT22;10263;48.716;8.760;2024-02-16T00:04:09;9.10;99.90
20208;DHT22;10263;48.716;8.760;2024-02-16T00:11:31;9.10;99.90
20208;DHT22;10263;48.716;8.760;2024-02-16T00:16:25;8.60;99.90
20208;DHT22;10263;48.716;8.760;2024-02-16T00:28:42;8.90;99.90
20208;DHT22;10263;48.716;8.760;2024-02-16T00:33:36;8.90;99.90
20208;DHT22;10263;48.716;8.760;2024-02-16T00:36:03;8.90;99.90
20208;DHT22;10263;48.716;8.760;2024-02-16T00:38:30;8.70;99.90
20208;DHT22;10263;48.716;8.760;2024-02-16T00:43:24;8.50;99.90
20208;DHT22;10263;48.716;8.760;2024-02-16T00:45:52;8.60;99.90
20208;DHT22;10263;48.716;8.760;2024-02-16T00:48:19;8.40;99.90
20208;DHT22;10263;48.716;8.760;2024-02-16T00:53:13;8.60;99.90
20208;DHT22;10263;48.716;8.760;2024-02-16T00:55:40;8.40;99.90
20208;DHT22;10263;48.716;8.760;2024-02-16T01:00:34;8.40;99.90
20208;DHT22;10263;48.716;8.760;2024-02-16T01:03:03;8.20;99.90
20208;DHT22;10263;48.716;8.760;2024-02-16T01:05:29;8.70;99.90
20208;DHT22;10263;48.716;8.760;2024-02-16T01:10:23;8.30;99.90
20208;DHT22;10263;48.716;8.760;2024-02-16T01:12:50;8.40;99.90
20208;DHT22;10263;48.716;8.760;2024-02-16T01:15:18;8.40;99.90
20208;DHT22;10263;48.716;8.760;2024-02-16T01:20:13;8.40;99.90
20208;DHT22;10263;48.716;8.760;2024-02-16T01:25:08;8.30;99.90
20208;DHT22;10263;48.716;8.760;2024-02-16T01:27:35;8.10;99.90
20208;DHT22;10263;48.716;8.760;2024-02-16T01:30:03;8.40;99.90
20208;DHT22;10263;48.716;8.760;2024-02-16T01:34:57;8.60;99.90
20208;DHT22;10263;48.716;8.760;2024-02-16T01:37:25;8.80;99.90
20208;DHT22;10263;48.716;8.760;2024-02-16T01:39:52;8.60;99.90
20208;DHT22;10263;48.716;8.760;2024-02-16T01:44:46;8.70;99.90
20208;DHT22;10263;48.716;8.760;2024-02-16T01:47:13;8.30;99.90
20208;DHT22;10263;48.716;8.760;2024-02-16T01:52:14;8.40;99.90
20208;DHT22;10263;48.716;8.760;2024-02-16T01:54:42;8.50;99.90
20208;DHT22;10263;48.716;8.760;2024-02-16T01:57:09;8.50;99.90
20208;DHT22;10263;48.716;8.760;2024-02-16T01:59:38;8.40;99.90
20208;DHT22;10263;48.716;8.760;2024-02-16T02:02:05;8.50;99.90
20208;DHT22;10263;48.716;8.760;2024-02-16T02:04:32;8.30;99.90
20208;DHT22;10263;48.716;8.760;2024-02-16T02:06:59;8.40;99.90
20208;DHT22;10263;48.716;8.760;2024-02-16T02:11:54;8.60;99.90
20208;DHT22;10263;48.716;8.760;2024-02-16T02:14:22;8.40;99.90
20208;DHT22;10263;48.716;8.760;2024-02-16T02:16:51;8.30;99.90
20208;DHT22;10263;48.716;8.760;2024-02-16T02:19:18;8.70;99.90
20208;DHT22;10263;48.716;8.760;2024-02-16T02:21:45;8.30;99.90
20208;DHT22;10263;48.716;8.760;2024-02-16T02:24:13;8.60;99.90
20208;DHT22;10263;48.716;8.760;2024-02-16T02:26:40;8.40;99.90
20208;DHT22;10263;48.716;8.760;2024-02-16T02:29:06;8.60;99.90
20208;DHT22;10263;48.716;8.760;2024-02-16T02:31:33;8.50;99.90
20208;DHT22;10263;48.716;8.760;2024-02-16T02:34:00;8.50;99.90
20208;DHT22;10263;48.716;8.760;2024-02-16T02:36:27;8.30;99.90
20208;DHT22;10263;48.716;8.760;2024-02-16T02:38:53;8.60;99.90
20208;DHT22;10263;48.716;8.760;2024-02-16T02:41:22;11.30;99.90
20208;DHT22;10263;48.716;8.760;2024-02-16T02:46:16;8.70;99.90
20208;DHT22;10263;48.716;8.760;2024-02-16T02:48:44;8.20;99.90
20208;DHT22;10263;48.716;8.760;2024-02-16T02:51:11;8.60;99.90
20208;DHT22;10263;48.716;8.760;2024-02-16T02:53:38;8.40;99.90
20208;DHT22;10263;48.716;8.760;2024-02-16T02:56:05;8.40;99.90
20208;DHT22;10263;48.716;8.760;2024-02-16T02:58:34;8.40;99.90
20208;DHT22;10263;48.716;8.760;2024-02-16T03:01:01;8.50;99.90
20208;DHT22;10263;48.716;8.760;2024-02-16T03:03:28;8.40;99.90
20208;DHT22;10263;48.716;8.760;2024-02-16T03:05:55;8.20;99.90
20208;DHT22;10263;48.716;8.760;2024-02-16T03:15:45;8.30;99.90
20208;DHT22;10263;48.716;8.760;2024-02-16T03:23:11;8.20;99.90
20208;DHT22;10263;48.716;8.760;2024-02-16T03:25:38;7.90;99.90
20208;DHT22;10263;48.716;8.760;2024-02-16T03:28:05;8.20;99.90
20208;DHT22;10263;48.716;8.760;2024-02-16T03:36:48;8.00;99.90
20208;DHT22;10263;48.716;8.760;2024-02-16T03:39:14;8.20;99.90
20208;DHT22;10263;48.716;8.760;2024-02-16T03:41:45;8.10;99.90
20208;DHT22;10263;48.716;8.760;2024-02-16T03:44:14;7.70;99.90
20208;DHT22;10263;48.716;8.760;2024-02-16T03:46:41;7.70;99.90
20208;DHT22;10263;48.716;8.760;2024-02-16T03:49:08;7.90;99.90
20208;DHT22;10263;48.716;8.760;2024-02-16T03:51:35;8.20;99.90
20208;DHT22;10263;48.716;8.760;2024-02-16T03:54:05;8.00;99.90
20208;DHT22;10263;48.716;8.760;2024-02-16T03:58:59;8.00;99.90
20208;DHT22;10263;48.716;8.760;2024-02-16T04:01:26;8.00;99.90
20208;DHT22;10263;48.716;8.760;2024-02-16T04:06:20;8.00;99.90
20208;DHT22;10263;48.716;8.760;2024-02-16T04:08:47;7.60;99.90
20208;DHT22;10263;48.716;8.760;2024-02-16T04:11:16;7.70;99.90
20208;DHT22;10263;48.716;8.760;2024-02-16T04:16:10;7.40;99.90
20208;DHT22;10263;48.716;8.760;2024-02-16T04:18:37;7.50;99.90
20208;DHT22;10263;48.716;8.760;2024-02-16T04:21:04;7.70;99.90
20208;DHT22;10263;48.716;8.760;2024-02-16T04:23:31;7.30;99.90
20208;DHT22;10263;48.716;8.760;2024-02-16T04:28:27;7.50;99.90
20208;DHT22;10263;48.716;8.760;2024-02-16T04:30:54;7.50;99.90
20208;DHT22;10263;48.716;8.760;2024-02-16T04:35:47;7.30;99.90
20208;DHT22;10263;48.716;8.760;2024-02-16T04:40:43;7.60;99.90
20208;DHT22;10263;48.716;8.760;2024-02-16T04:43:10;7.60;99.90
20208;DHT22;10263;48.716;8.760;2024-02-16T04:45:39;7.70;99.90
20208;DHT22;10263;48.716;8.760;2024-02-16T04:48:06;7.40;99.90
20208;DHT22;10263;48.716;8.760;2024-02-16T04:50:34;7.40;99.90
20208;DHT22;10263;48.716;8.760;2024-02-16T05:00:24;7.70;99.90
20208;DHT22;10263;48.716;8.760;2024-02-16T05:02:52;7.60;99.90
20208;DHT22;10263;48.716;8.760;2024-02-16T05:07:48;7.50;99.90
20208;DHT22;10263;48.716;8.760;2024-02-16T05:12:45;7.00;99.90
20208;DHT22;10263;48.716;8.760;2024-02-16T05:20:12;7.30;99.90
20208;DHT22;10263;48.716;8.760;2024-02-16T05:22:41;7.40;99.90
20208;DHT22;10263;48.716;8.760;2024-02-16T05:27:36;7.10;99.90
20208;DHT22;10263;48.716;8.760;2024-02-16T05:30:05;6.90;99.90
20208;DHT22;10263;48.716;8.760;2024-02-16T05:32:34;7.10;99.90
20208;DHT22;10263;48.716;8.760;2024-02-16T05:35:01;7.10;99.90
20208;DHT22;10263;48.716;8.760;2024-02-16T05:37:31;7.00;99.90
20208;DHT22;10263;48.716;8.760;2024-02-16T05:39:58;7.00;99.90
20208;DHT22;10263;48.716;8.760;2024-02-16T05:42:34;6.80;99.90
20208;DHT22;10263;48.716;8.760;2024-02-16T05:45:01;6.60;99.90
20208;DHT22;10263;48.716;8.760;2024-02-16T05:47:28;6.80;99.90
20208;DHT22;10263;48.716;8.760;2024-02-16T05:49:55;7.00;99.90
20208;DHT22;10263;48.716;8.760;2024-02-16T05:52:21;6.80;99.90
20208;DHT22;10263;48.716;8.760;2024-02-16T05:54:50;6.90;99.90
20208;DHT22;10263;48.716;8.760;2024-02-16T05:59:44;7.10;99.90
20208;DHT22;10263;48.716;8.760;2024-02-16T06:04:39;6.70;99.90
20208;DHT22;10263;48.716;8.760;2024-02-16T06:07:06;7.00;99.90
20208;DHT22;10263;48.716;8.760;2024-02-16T06:12:05;6.80;99.90
20208;DHT22;10263;48.716;8.760;2024-02-16T06:14:33;6.80;99.90
20208;DHT22;10263;48.716;8.760;2024-02-16T06:17:00;7.00;99.90
20208;DHT22;10263;48.716;8.760;2024-02-16T06:19:33;6.20;99.90
20208;DHT22;10263;48.716;8.760;2024-02-16T06:24:27;6.60;99.90
20208;DHT22;10263;48.716;8.760;2024-02-16T06:26:54;6.30;99.90
20208;DHT22;10263;48.716;8.760;2024-02-16T06:29:22;6.50;99.90
20208;DHT22;10263;48.716;8.760;2024-02-16T06:34:17;6.50;99.90
20208;DHT22;10263;48.716;8.760;2024-02-16T06:36:54;6.30;99.90
20208;DHT22;10263;48.716;8.760;2024-02-16T06:39:21;6.70;99.90
20208;DHT22;10263;48.716;8.760;2024-02-16T06:41:47;6.50;99.90
20208;DHT22;10263;48.716;8.760;2024-02-16T06:44:15;4.20;99.90
20208;DHT22;10263;48.716;8.760;2024-02-16T06:46:43;6.50;99.90
20208;DHT22;10263;48.716;8.760;2024-02-16T06:51:38;6.60;99.90
20208;DHT22;10263;48.716;8.760;2024-02-16T06:54:05;6.40;99.90
20208;DHT22;10263;48.716;8.760;2024-02-16T06:59:01;6.60;99.90
20208;DHT22;10263;48.716;8.760;2024-02-16T07:01:28;6.70;99.90
20208;DHT22;10263;48.716;8.760;2024-02-16T07:03:56;6.40;99.90
20208;DHT22;10263;48.716;8.760;2024-02-16T07:08:51;6.80;99.90
20208;DHT22;10263;48.716;8.760;2024-02-16T07:11:18;6.80;99.90
20208;DHT22;10263;48.716;8.760;2024-02-16T07:16:13;6.60;99.90
20208;DHT22;10263;48.716;8.760;2024-02-16T07:18:40;6.80;99.90
20208;DHT22;10263;48.716;8.760;2024-02-16T07:21:08;7.50;99.90
20208;DHT22;10263;48.716;8.760;2024-02-16T07:23:36;7.30;99.90
20208;DHT22;10263;48.716;8.760;2024-02-16T07:30:24;6.80;99.90
20208;DHT22;10263;48.716;8.760;2024-02-16T07:38:33;7.30;99.90
20208;DHT22;10263;48.716;8.760;2024-02-16T07:41:00;7.70;99.90
20208;DHT22;10263;48.716;8.760;2024-02-16T07:43:28;7.70;99.90
20208;DHT22;10263;48.716;8.760;2024-02-16T07:55:45;8.10;99.90
20208;DHT22;10263;48.716;8.760;2024-02-16T08:05:33;8.20;99.90
20208;DHT22;10263;48.716;8.760;2024-02-16T08:08:00;8.70;99.90
20208;DHT22;10263;48.716;8.760;2024-02-16T08:10:28;8.70;99.90
20208;DHT22;10263;48.716;8.760;2024-02-16T08:12:56;8.40;99.90
20208;DHT22;10263;48.716;8.760;2024-02-16T08:15:23;8.60;99.90
20208;DHT22;10263;48.716;8.760;2024-02-16T08:20:18;9.00;99.90
20208;DHT22;10263;48.716;8.760;2024-02-16T08:27:40;9.30;99.90
20208;DHT22;10263;48.716;8.760;2024-02-16T08:30:09;9.30;99.90
20208;DHT22;10263;48.716;8.760;2024-02-16T08:35:04;9.50;99.90
20208;DHT22;10263;48.716;8.760;2024-02-16T08:37:31;9.90;99.90
20208;DHT22;10263;48.716;8.760;2024-02-16T08:39:58;10.00;99.90
20208;DHT22;10263;48.716;8.760;2024-02-16T08:47:21;10.20;99.90
20208;DHT22;10263;48.716;8.760;2024-02-16T08:49:48;10.60;99.90
20208;DHT22;10263;48.716;8.760;2024-02-16T08:52:15;10.50;99.90
20208;DHT22;10263;48.716;8.760;2024-02-16T08:54:42;10.60;99.90
20208;DHT22;10263;48.716;8.760;2024-02-16T08:57:09;8.80;99.90
20208;DHT22;10263;48.716;8.760;2024-02-16T08:59:37;11.40;99.90
20208;DHT22;10263;48.716;8.760;2024-02-16T09:02:04;11.30;99.90
20208;DHT22;10263;48.716;8.760;2024-02-16T09:04:33;11.80;99.90
20208;DHT22;10263;48.716;8.760;2024-02-16T09:06:59;11.90;99.90
20208;DHT22;10263;48.716;8.760;2024-02-16T09:09:26;12.50;99.90
20208;DHT22;10263;48.716;8.760;2024-02-16T09:11:53;13.40;99.90
20208;DHT22;10263;48.716;8.760;2024-02-16T09:14:21;13.70;99.90
20208;DHT22;10263;48.716;8.760;2024-02-16T09:16:49;13.70;99.90
20208;DHT22;10263;48.716;8.760;2024-02-16T09:19:17;14.50;99.90
20208;DHT22;10263;48.716;8.760;2024-02-16T09:21:46;14.80;99.90
20208;DHT22;10263;48.716;8.760;2024-02-16T09:24:13;14.50;99.90
20208;DHT22;10263;48.716;8.760;2024-02-16T09:29:12;14.60;99.90
20208;DHT22;10263;48.716;8.760;2024-02-16T09:31:39;15.20;99.90
20208;DHT22;10263;48.716;8.760;2024-02-16T09:36:33;15.00;99.90
20208;DHT22;10263;48.716;8.760;2024-02-16T09:39:03;15.30;99.90
20208;DHT22;10263;48.716;8.760;2024-02-16T09:41:33;15.20;99.90
20208;DHT22;10263;48.716;8.760;2024-02-16T09:44:01;14.80;99.90
20208;DHT22;10263;48.716;8.760;2024-02-16T09:46:30;14.90;99.90
20208;DHT22;10263;48.716;8.760;2024-02-16T09:49:01;14.60;99.90
20208;DHT22;10263;48.716;8.760;2024-02-16T09:51:28;15.10;99.90
20208;DHT22;10263;48.716;8.760;2024-02-16T09:53:55;14.80;99.90
20208;DHT22;10263;48.716;8.760;2024-02-16T09:56:24;15.00;99.90
20208;DHT22;10263;48.716;8.760;2024-02-16T09:58:51;15.10;99.90
20208;DHT22;10263;48.716;8.760;2024-02-16T10:01:18;15.00;99.90
20208;DHT22;10263;48.716;8.760;2024-02-16T10:03:46;15.20;99.90
20208;DHT22;10263;48.716;8.760;2024-02-16T10:06:14;14.80;99.90
20208;DHT22;10263;48.716;8.760;2024-02-16T10:08:48;14.80;99.90
20208;DHT22;10263;48.716;8.760;2024-02-16T10:11:16;15.10;99.90
20208;DHT22;10263;48.716;8.760;2024-02-16T10:13:55;14.80;99.90
20208;DHT22;10263;48.716;8.760;2024-02-16T10:16:23;15.10;99.90
20208;DHT22;10263;48.716;8.760;2024-02-16T10:18:50;15.50;99.90
20208;DHT22;10263;48.716;8.760;2024-02-16T10:21:27;15.20;99.90
20208;DHT22;10263;48.716;8.760;2024-02-16T10:23:59;15.60;99.90
20208;DHT22;10263;48.716;8.760;2024-02-16T10:26:26;15.60;99.90
20208;DHT22;10263;48.716;8.760;2024-02-16T10:28:56;15.20;99.90
20208;DHT22;10263;48.716;8.760;2024-02-16T10:31:24;15.60;99.90
20208;DHT22;10263;48.716;8.760;2024-02-16T10:34:00;15.50;99.90
20208;DHT22;10263;48.716;8.760;2024-02-16T10:39:00;16.30;99.90
20208;DHT22;10263;48.716;8.760;2024-02-16T10:41:31;15.80;99.90
20208;DHT22;10263;48.716;8.760;2024-02-16T10:44:02;16.50;99.90
20208;DHT22;10263;48.716;8.760;2024-02-16T10:46:30;17.20;99.90
20208;DHT22;10263;48.716;8.760;2024-02-16T10:48:57;16.60;99.90
20208;DHT22;10263;48.716;8.760;2024-02-16T10:51:30;17.50;99.90
20208;DHT22;10263;48.716;8.760;2024-02-16T10:53:59;17.30;99.90
20208;DHT22;10263;48.716;8.760;2024-02-16T10:56:28;17.30;99.90
20208;DHT22;10263;48.716;8.760;2024-02-16T10:59:02;17.40;99.90
20208;DHT22;10263;48.716;8.760;2024-02-16T11:01:32;18.00;99.90
20208;DHT22;10263;48.716;8.760;2024-02-16T11:04:04;18.70;99.90
20208;DHT22;10263;48.716;8.760;2024-02-16T11:06:44;19.20;99.90
20208;DHT22;10263;48.716;8.760;2024-02-16T11:09:22;19.60;99.90
20208;DHT22;10263;48.716;8.760;2024-02-16T11:11:52;20.00;99.90
20208;DHT22;10263;48.716;8.760;2024-02-16T11:14:21;19.90;99.90
20208;DHT22;10263;48.716;8.760;2024-02-16T11:16:48;19.10;99.90
20208;DHT22;10263;48.716;8.760;2024-02-16T11:19:16;19.80;99.90
20208;DHT22;10263;48.716;8.760;2024-02-16T11:22:02;19.20;99.90
20208;DHT22;10263;48.716;8.760;2024-02-16T11:24:33;19.60;99.90
20208;DHT22;10263;48.716;8.760;2024-02-16T11:27:02;19.70;99.90
20208;DHT22;10263;48.716;8.760;2024-02-16T11:29:34;19.10;99.90
20208;DHT22;10263;48.716;8.760;2024-02-16T11:32:03;19.40;99.90
20208;DHT22;10263;48.716;8.760;2024-02-16T11:34:30;18.80;99.90
20208;DHT22;10263;48.716;8.760;2024-02-16T11:36:58;19.50;99.90
20208;DHT22;10263;48.716;8.760;2024-02-16T11:39:25;19.70;99.90
20208;DHT22;10263;48.716;8.760;2024-02-16T11:42:02;19.60;99.90
20208;DHT22;10263;48.716;8.760;2024-02-16T11:44:30;19.70;99.90
20208;DHT22;10263;48.716;8.760;2024-02-16T11:47:00;19.80;99.90
20208;DHT22;10263;48.716;8.760;2024-02-16T11:49:29;19.90;99.90
20208;DHT22;10263;48.716;8.760;2024-02-16T11:51:56;20.50;99.90
20208;DHT22;10263;48.716;8.760;2024-02-16T11:54:23;20.30;99.90
20208;DHT22;10263;48.716;8.760;2024-02-16T11:56:51;19.70;99.90
20208;DHT22;10263;48.716;8.760;2024-02-16T11:59:18;21.70;99.90
20208;DHT22;10263;48.716;8.760;2024-02-16T12:01:50;21.50;99.90
20208;DHT22;10263;48.716;8.760;2024-02-16T12:04:24;22.20;99.90
20208;DHT22;10263;48.716;8.760;2024-02-16T12:06:52;21.80;99.90
20208;DHT22;10263;48.716;8.760;2024-02-16T12:11:48;22.00;99.50
20208;DHT22;10263;48.716;8.760;2024-02-16T12:14:15;21.60;99.90
20208;DHT22;10263;48.716;8.760;2024-02-16T12:16:42;21.70;99.90
20208;DHT22;10263;48.716;8.760;2024-02-16T12:19:09;21.70;99.90
20208;DHT22;10263;48.716;8.760;2024-02-16T12:21:39;20.60;99.90
20208;DHT22;10263;48.716;8.760;2024-02-16T12:26:34;20.90;99.90
20208;DHT22;10263;48.716;8.760;2024-02-16T12:29:01;20.40;99.90
20208;DHT22;10263;48.716;8.760;2024-02-16T12:31:29;20.10;99.90
20208;DHT22;10263;48.716;8.760;2024-02-16T12:34:09;20.50;99.90
20208;DHT22;10263;48.716;8.760;2024-02-16T12:36:36;20.10;99.90
20208;DHT22;10263;48.716;8.760;2024-02-16T12:39:06;19.90;99.90
20208;DHT22;10263;48.716;8.760;2024-02-16T12:41:34;19.90;99.90
20208;DHT22;10263;48.716;8.760;2024-02-16T12:53:51;19.40;99.90
20208;DHT22;10263;48.716;8.760;2024-02-16T12:56:19;19.50;99.90
20208;DHT22;10263;48.716;8.760;2024-02-16T13:01:14;18.90;99.90
20208;DHT22;10263;48.716;8.760;2024-02-16T13:06:10;19.40;99.90
20208;DHT22;10263;48.716;8.760;2024-02-16T13:08:37;19.00;99.90
20208;DHT22;10263;48.716;8.760;2024-02-16T13:11:04;19.10;99.90
20208;DHT22;10263;48.716;8.760;2024-02-16T13:13:32;18.80;99.90
20208;DHT22;10263;48.716;8.760;2024-02-16T13:18:26;18.50;99.90
20208;DHT22;10263;48.716;8.760;2024-02-16T13:20:53;18.20;99.90
20208;DHT22;10263;48.716;8.760;2024-02-16T13:23:21;18.20;99.90
20208;DHT22;10263;48.716;8.760;2024-02-16T13:25:47;17.80;99.90
20208;DHT22;10263;48.716;8.760;2024-02-16T13:28:14;17.70;99.90
20208;DHT22;10263;48.716;8.760;2024-02-16T13:30:43;17.70;99.90
20208;DHT22;10263;48.716;8.760;2024-02-16T13:33:10;17.00;99.90
20208;DHT22;10263;48.716;8.760;2024-02-16T13:38:04;17.20;99.90
20208;DHT22;10263;48.716;8.760;2024-02-16T13:40:31;16.90;99.90
20208;DHT22;10263;48.716;8.760;2024-02-16T13:42:59;17.20;99.90
20208;DHT22;10263;48.716;8.760;2024-02-16T13:45:27;17.10;99.90
20208;DHT22;10263;48.716;8.760;2024-02-16T13:47:57;17.40;99.90
20208;DHT22;10263;48.716;8.760;2024-02-16T14:00:15;17.40;99.90
20208;DHT22;10263;48.716;8.760;2024-02-16T14:02:42;17.50;99.90
20208;DHT22;10263;48.716;8.760;2024-02-16T14:05:11;19.80;99.90
20208;DHT22;10263;48.716;8.760;2024-02-16T14:07:39;17.00;99.90
20208;DHT22;10263;48.716;8.760;2024-02-16T14:10:07;16.80;99.90
20208;DHT22;10263;48.716;8.760;2024-02-16T14:15:01;16.70;99.90
20208;DHT22;10263;48.716;8.760;2024-02-16T14:19:56;16.40;99.90
20208;DHT22;10263;48.716;8.760;2024-02-16T14:22:24;16.40;99.90
20208;DHT22;10263;48.716;8.760;2024-02-16T14:24:51;15.90;99.90
20208;DHT22;10263;48.716;8.760;2024-02-16T14:27:18;16.00;99.90
20208;DHT22;10263;48.716;8.760;2024-02-16T14:29:44;16.20;99.90
20208;DHT22;10263;48.716;8.760;2024-02-16T14:32:11;16.40;99.90
20208;DHT22;10263;48.716;8.760;2024-02-16T14:34:38;15.60;99.90
20208;DHT22;10263;48.716;8.760;2024-02-16T14:39:34;16.00;99.90
20208;DHT22;10263;48.716;8.760;2024-02-16T14:42:01;15.40;99.90
20208;DHT22;10263;48.716;8.760;2024-02-16T14:46:55;16.00;99.90
20208;DHT22;10263;48.716;8.760;2024-02-16T14:49:22;15.80;99.90
20208;DHT22;10263;48.716;8.760;2024-02-16T14:51:50;15.80;99.90
20208;DHT22;10263;48.716;8.760;2024-02-16T14:54:18;15.20;99.90
20208;DHT22;10263;48.716;8.760;2024-02-16T14:56:46;15.50;99.90
20208;DHT22;10263;48.716;8.760;2024-02-16T15:01:41;15.50;99.90
20208;DHT22;10263;48.716;8.760;2024-02-16T15:04:09;15.10;99.90
20208;DHT22;10263;48.716;8.760;2024-02-16T15:11:30;15.30;99.90
20208;DHT22;10263;48.716;8.760;2024-02-16T15:13:58;15.30;99.90
20208;DHT22;10263;48.716;8.760;2024-02-16T15:16:26;12.80;99.90
20208;DHT22;10263;48.716;8.760;2024-02-16T15:18:53;15.00;99.90
20208;DHT22;10263;48.716;8.760;2024-02-16T15:21:19;15.70;99.90
20208;DHT22;10263;48.716;8.760;2024-02-16T15:23:46;15.20;99.90
20208;DHT22;10263;48.716;8.760;2024-02-16T15:31:08;15.30;99.90
20208;DHT22;10263;48.716;8.760;2024-02-16T15:33:35;15.40;99.90
20208;DHT22;10263;48.716;8.760;2024-02-16T15:36:02;15.10;99.90
20208;DHT22;10263;48.716;8.760;2024-02-16T15:38:29;15.50;99.90
20208;DHT22;10263;48.716;8.760;2024-02-16T15:43:23;15.30;99.90
20208;DHT22;10263;48.716;8.760;2024-02-16T15:45:50;15.00;99.90
20208;DHT22;10263;48.716;8.760;2024-02-16T15:48:19;14.90;99.90
20208;DHT22;10263;48.716;8.760;2024-02-16T15:50:46;12.40;99.90
20208;DHT22;10263;48.716;8.760;2024-02-16T15:55:40;15.30;99.90
20208;DHT22;10263;48.716;8.760;2024-02-16T15:58:08;15.00;99.90
20208;DHT22;10263;48.716;8.760;2024-02-16T16:05:30;14.90;99.90
20208;DHT22;10263;48.716;8.760;2024-02-16T16:07:59;15.10;99.90
20208;DHT22;10263;48.716;8.760;2024-02-16T16:20:14;14.70;99.90
20208;DHT22;10263;48.716;8.760;2024-02-16T16:22:43;14.70;99.90
20208;DHT22;10263;48.716;8.760;2024-02-16T16:30:06;14.50;99.90
20208;DHT22;10263;48.716;8.760;2024-02-16T16:32:33;14.20;99.90
20208;DHT22;10263;48.716;8.760;2024-02-16T16:39:56;14.30;99.90
20208;DHT22;10263;48.716;8.760;2024-02-16T16:42:22;14.00;99.90
20208;DHT22;10263;48.716;8.760;2024-02-16T16:49:44;14.00;99.90
20208;DHT22;10263;48.716;8.760;2024-02-16T16:52:10;13.70;99.90
20208;DHT22;10263;48.716;8.760;2024-02-16T16:57:07;13.60;99.90
20208;DHT22;10263;48.716;8.760;2024-02-16T16:59:33;14.00;99.90
20208;DHT22;10263;48.716;8.760;2024-02-16T17:04:28;13.90;99.90
20208;DHT22;10263;48.716;8.760;2024-02-16T17:06:57;13.70;99.90
20208;DHT22;10263;48.716;8.760;2024-02-16T17:09:24;14.00;99.90
20208;DHT22;10263;48.716;8.760;2024-02-16T17:14:20;13.50;99.90
20208;DHT22;10263;48.716;8.760;2024-02-16T17:16:46;13.60;99.90
20208;DHT22;10263;48.716;8.760;2024-02-16T17:24:21;13.40;99.90
20208;DHT22;10263;48.716;8.760;2024-02-16T17:26:48;13.50;99.90
20208;DHT22;10263;48.716;8.760;2024-02-16T17:29:15;13.10;99.90
20208;DHT22;10263;48.716;8.760;2024-02-16T17:31:43;13.40;99.90
20208;DHT22;10263;48.716;8.760;2024-02-16T17:34:10;13.10;99.90
20208;DHT22;10263;48.716;8.760;2024-02-16T17:41:31;12.90;99.90
20208;DHT22;10263;48.716;8.760;2024-02-16T17:46:26;12.90;99.90
20208;DHT22;10263;48.716;8.760;2024-02-16T17:48:54;12.90;99.90
20208;DHT22;10263;48.716;8.760;2024-02-16T17:51:21;13.00;99.90
20208;DHT22;10263;48.716;8.760;2024-02-16T17:53:48;13.30;99.90
20208;DHT22;10263;48.716;8.760;2024-02-16T17:58:42;12.90;99.90
20208;DHT22;10263;48.716;8.760;2024-02-16T18:01:08;12.60;99.90
20208;DHT22;10263;48.716;8.760;2024-02-16T18:06:04;12.90;99.90
20208;DHT22;10263;48.716;8.760;2024-02-16T18:08:31;12.60;99.90
20208;DHT22;10263;48.716;8.760;2024-02-16T18:10:57;12.70;99.90
20208;DHT22;10263;48.716;8.760;2024-02-16T18:15:51;12.40;99.90
20208;DHT22;10263;48.716;8.760;2024-02-16T18:25:43;12.70;99.90
20208;DHT22;10263;48.716;8.760;2024-02-16T18:33:06;12.40;99.90
20208;DHT22;10263;48.716;8.760;2024-02-16T18:40:28;12.30;99.90
20208;DHT22;10263;48.716;8.760;2024-02-16T18:42:55;11.90;99.90
20208;DHT22;10263;48.716;8.760;2024-02-16T18:45:22;12.00;99.90
20208;DHT22;10263;48.716;8.760;2024-02-16T18:50:19;12.70;99.90
20208;DHT22;10263;48.716;8.760;2024-02-16T18:52:46;12.10;99.90
20208;DHT22;10263;48.716;8.760;2024-02-16T18:57:42;12.20;99.90
20208;DHT22;10263;48.716;8.760;2024-02-16T19:00:10;12.30;99.90
20208;DHT22;10263;48.716;8.760;2024-02-16T19:02:37;12.20;99.90
20208;DHT22;10263;48.716;8.760;2024-02-16T19:05:08;12.20;99.90
20208;DHT22;10263;48.716;8.760;2024-02-16T19:12:30;11.80;99.90
20208;DHT22;10263;48.716;8.760;2024-02-16T19:14:58;12.10;99.90
20208;DHT22;10263;48.716;8.760;2024-02-16T19:17:25;11.90;99.90
20208;DHT22;10263;48.716;8.760;2024-02-16T19:19:52;12.00;99.90
20208;DHT22;10263;48.716;8.760;2024-02-16T19:22:20;11.90;99.90
20208;DHT22;10263;48.716;8.760;2024-02-16T19:29:45;12.10;99.90
20208;DHT22;10263;48.716;8.760;2024-02-16T19:32:13;11.60;99.90
20208;DHT22;10263;48.716;8.760;2024-02-16T19:44:29;11.60;99.90
20208;DHT22;10263;48.716;8.760;2024-02-16T19:46:58;11.80;99.90
20208;DHT22;10263;48.716;8.760;2024-02-16T19:49:26;11.70;99.90
20208;DHT22;10263;48.716;8.760;2024-02-16T19:54:20;11.30;99.90
20208;DHT22;10263;48.716;8.760;2024-02-16T20:01:41;11.90;99.90
20208;DHT22;10263;48.716;8.760;2024-02-16T20:04:08;11.90;99.90
20208;DHT22;10263;48.716;8.760;2024-02-16T20:06:36;11.60;99.90
20208;DHT22;10263;48.716;8.760;2024-02-16T20:09:03;11.50;99.90
20208;DHT22;10263;48.716;8.760;2024-02-16T20:11:31;11.40;99.90
20208;DHT22;10263;48.716;8.760;2024-02-16T20:18:52;11.50;99.90
20208;DHT22;10263;48.716;8.760;2024-02-16T20:21:21;11.80;99.90
20208;DHT22;10263;48.716;8.760;2024-02-16T20:23:49;11.60;99.90
20208;DHT22;10263;48.716;8.760;2024-02-16T20:26:22;11.90;99.90
20208;DHT22;10263;48.716;8.760;2024-02-16T20:28:48;11.70;99.90
20208;DHT22;10263;48.716;8.760;2024-02-16T20:31:15;11.80;99.90
20208;DHT22;10263;48.716;8.760;2024-02-16T20:33:42;11.40;99.90
20208;DHT22;10263;48.716;8.760;2024-02-16T20:36:09;11.40;99.90
20208;DHT22;10263;48.716;8.760;2024-02-16T20:38:35;11.60;99.90
20208;DHT22;10263;48.716;8.760;2024-02-16T20:41:05;11.60;99.90
20208;DHT22;10263;48.716;8.760;2024-02-16T20:43:32;11.40;99.90
20208;DHT22;10263;48.716;8.760;2024-02-16T20:48:27;11.40;99.90
20208;DHT22;10263;48.716;8.760;2024-02-16T20:53:21;11.50;99.90
20208;DHT22;10263;48.716;8.760;2024-02-16T20:55:48;11.40;99.90
20208;DHT22;10263;48.716;8.760;2024-02-16T20:58:16;11.80;99.90
20208;DHT22;10263;48.716;8.760;2024-02-16T21:00:44;11.60;99.90
20208;DHT22;10263;48.716;8.760;2024-02-16T21:03:11;11.70;99.90
20208;DHT22;10263;48.716;8.760;2024-02-16T21:08:05;11.60;99.90
20208;DHT22;10263;48.716;8.760;2024-02-16T21:15:28;11.60;99.90
20208;DHT22;10263;48.716;8.760;2024-02-16T21:20:22;11.50;99.90
20208;DHT22;10263;48.716;8.760;2024-02-16T21:25:16;11.40;99.90
20208;DHT22;10263;48.716;8.760;2024-02-16T21:27:43;11.80;99.90
20208;DHT22;10263;48.716;8.760;2024-02-16T21:30:11;11.80;99.90
20208;DHT22;10263;48.716;8.760;2024-02-16T21:32:39;11.70;99.90
20208;DHT22;10263;48.716;8.760;2024-02-16T21:35:06;11.70;99.90
20208;DHT22;10263;48.716;8.760;2024-02-16T21:37:34;11.60;99.90
20208;DHT22;10263;48.716;8.760;2024-02-16T21:49:52;11.30;99.90
20208;DHT22;10263;48.716;8.760;2024-02-16T21:52:18;11.30;99.90
20208;DHT22;10263;48.716;8.760;2024-02-16T21:54:45;11.10;99.90